sensor_id;sensor_type;location;lat;lon;timestamp;P1;durP1;ratioP1;P2;durP2;ratioP2
16197;SDS011;8206;51.440;6.914;2024-01-15T00:00:55;7.07;;;5.47;;
16197;SDS011;8206;51.440;6.914;2024-01-15T00:03:22;12.70;;;3.93;;
16197;SDS011;8206;51.440;6.914;2024-01-15T00:05:50;14.23;;;5.03;;
16197;SDS011;8206;51.440;6.914;2024-01-15T00:08:17;10.57;;;4.87;;
16197;SDS011;8206;51.440;6.914;2024-01-15T00:10:43;4.57;;;4.27;;
16197;SDS011;8206;51.440;6.914;2024-01-15T00:13:10;4.53;;;3.97;;
16197;SDS011;8206;51.440;6.914;2024-01-15T00:15:37;3.40;;;3.20;;
16197;SDS011;8206;51.440;6.914;2024-01-15T00:18:04;4.97;;;4.40;;
16197;SDS011;8206;51.440;6.914;2024-01-15T00:20:30;13.40;;;5.87;;
16197;SDS011;8206;51.440;6.914;2024-01-15T00:22:58;6.97;;;6.03;;
16197;SDS011;8206;51.440;6.914;2024-01-15T00:25:25;10.80;;;4.53;;
16197;SDS011;8206;51.440;6.914;2024-01-15T00:27:52;3.97;;;3.77;;
16197;SDS011;8206;51.440;6.914;2024-01-15T00:30:18;5.00;;;4.33;;
16197;SDS011;8206;51.440;6.914;2024-01-15T00:32:45;4.07;;;3.90;;
16197;SDS011;8206;51.440;6.914;2024-01-15T00:35:12;7.67;;;4.47;;
16197;SDS011;8206;51.440;6.914;2024-01-15T00:37:38;3.83;;;3.50;;
16197;SDS011;8206;51.440;6.914;2024-01-15T00:40:07;18.63;;;5.83;;
16197;SDS011;8206;51.440;6.914;2024-01-15T00:42:34;4.93;;;4.63;;
16197;SDS011;8206;51.440;6.914;2024-01-15T00:45:01;3.87;;;3.57;;
16197;SDS011;8206;51.440;6.914;2024-01-15T00:47:28;5.20;;;4.80;;
16197;SDS011;8206;51.440;6.914;2024-01-15T00:49:54;6.20;;;4.40;;
16197;SDS011;8206;51.440;6.914;2024-01-15T00:52:21;4.10;;;3.77;;
16197;SDS011;8206;51.440;6.914;2024-01-15T00:54:48;5.13;;;3.97;;
16197;SDS011;8206;51.440;6.914;2024-01-15T00:57:16;5.93;;;5.27;;
16197;SDS011;8206;51.440;6.914;2024-01-15T00:59:44;3.93;;;3.70;;
16197;SDS011;8206;51.440;6.914;2024-01-15T01:02:10;4.40;;;4.07;;
16197;SDS011;8206;51.440;6.914;2024-01-15T01:04:37;5.37;;;4.13;;
16197;SDS011;8206;51.440;6.914;2024-01-15T01:07:04;4.87;;;4.47;;
16197;SDS011;8206;51.440;6.914;2024-01-15T01:09:30;3.63;;;3.33;;
16197;SDS011;8206;51.440;6.914;2024-01-15T01:11:57;4.77;;;3.73;;
16197;SDS011;8206;51.440;6.914;2024-01-15T01:14:25;3.80;;;3.60;;
16197;SDS011;8206;51.440;6.914;2024-01-15T01:16:52;6.80;;;6.13;;
16197;SDS011;8206;51.440;6.914;2024-01-15T01:19:19;5.13;;;4.83;;
16197;SDS011;8206;51.440;6.914;2024-01-15T01:21:45;3.53;;;3.23;;
16197;SDS011;8206;51.440;6.914;2024-01-15T01:24:12;4.63;;;4.23;;
16197;SDS011;8206;51.440;6.914;2024-01-15T01:26:39;4.67;;;4.27;;
16197;SDS011;8206;51.440;6.914;2024-01-15T01:29:05;4.53;;;4.13;;
16197;SDS011;8206;51.440;6.914;2024-01-15T01:31:33;16.50;;;5.20;;
16197;SDS011;8206;51.440;6.914;2024-01-15T01:34:00;5.13;;;4.73;;
16197;SDS011;8206;51.440;6.914;2024-01-15T01:36:27;3.53;;;3.23;;
16197;SDS011;8206;51.440;6.914;2024-01-15T01:38:53;4.60;;;4.20;;
16197;SDS011;8206;51.440;6.914;2024-01-15T01:41:20;4.97;;;4.77;;
16197;SDS011;8206;51.440;6.914;2024-01-15T01:43:49;5.03;;;4.73;;
16197;SDS011;8206;51.440;6.914;2024-01-15T01:46:15;8.77;;;5.87;;
16197;SDS011;8206;51.440;6.914;2024-01-15T01:48:43;5.53;;;4.13;;
16197;SDS011;8206;51.440;6.914;2024-01-15T01:51:10;4.27;;;3.83;;
16197;SDS011;8206;51.440;6.914;2024-01-15T01:53:38;4.30;;;4.00;;
16197;SDS011;8206;51.440;6.914;2024-01-15T01:56:05;3.27;;;2.93;;
16197;SDS011;8206;51.440;6.914;2024-01-15T01:58:32;6.60;;;4.53;;
16197;SDS011;8206;51.440;6.914;2024-01-15T02:00:59;7.30;;;5.37;;
16197;SDS011;8206;51.440;6.914;2024-01-15T02:03:26;5.23;;;4.37;;
16197;SDS011;8206;51.440;6.914;2024-01-15T02:05:54;4.43;;;4.13;;
16197;SDS011;8206;51.440;6.914;2024-01-15T02:08:22;2.20;;;2.10;;
16197;SDS011;8206;51.440;6.914;2024-01-15T02:10:48;5.47;;;3.73;;
16197;SDS011;8206;51.440;6.914;2024-01-15T02:13:15;3.60;;;3.40;;
16197;SDS011;8206;51.440;6.914;2024-01-15T02:15:42;2.57;;;1.93;;
16197;SDS011;8206;51.440;6.914;2024-01-15T02:18:08;7.87;;;7.10;;
16197;SDS011;8206;51.440;6.914;2024-01-15T02:20:35;3.93;;;3.73;;
16197;SDS011;8206;51.440;6.914;2024-01-15T02:23:08;2.60;;;2.43;;
16197;SDS011;8206;51.440;6.914;2024-01-15T02:25:36;3.20;;;3.10;;
16197;SDS011;8206;51.440;6.914;2024-01-15T02:28:04;2.60;;;2.43;;
16197;SDS011;8206;51.440;6.914;2024-01-15T02:30:32;2.87;;;2.77;;
16197;SDS011;8206;51.440;6.914;2024-01-15T02:33:00;5.37;;;4.87;;
16197;SDS011;8206;51.440;6.914;2024-01-15T02:35:27;9.30;;;5.67;;
16197;SDS011;8206;51.440;6.914;2024-01-15T02:37:54;3.73;;;3.23;;
16197;SDS011;8206;51.440;6.914;2024-01-15T02:40:22;3.97;;;3.77;;
16197;SDS011;8206;51.440;6.914;2024-01-15T02:42:48;4.57;;;3.33;;
16197;SDS011;8206;51.440;6.914;2024-01-15T02:45:15;3.80;;;3.60;;
16197;SDS011;8206;51.440;6.914;2024-01-15T02:47:42;3.97;;;3.77;;
16197;SDS011;8206;51.440;6.914;2024-01-15T02:50:09;5.17;;;4.77;;
16197;SDS011;8206;51.440;6.914;2024-01-15T02:52:35;4.50;;;4.10;;
16197;SDS011;8206;51.440;6.914;2024-01-15T02:55:02;4.73;;;3.63;;
16197;SDS011;8206;51.440;6.914;2024-01-15T02:57:30;6.27;;;2.53;;
16197;SDS011;8206;51.440;6.914;2024-01-15T02:59:57;4.97;;;4.43;;
16197;SDS011;8206;51.440;6.914;2024-01-15T03:02:24;20.97;;;3.43;;
16197;SDS011;8206;51.440;6.914;2024-01-15T03:04:51;2.87;;;2.43;;
16197;SDS011;8206;51.440;6.914;2024-01-15T03:07:17;4.27;;;3.50;;
16197;SDS011;8206;51.440;6.914;2024-01-15T03:09:44;3.03;;;2.87;;
16197;SDS011;8206;51.440;6.914;2024-01-15T03:12:11;1.93;;;1.83;;
16197;SDS011;8206;51.440;6.914;2024-01-15T03:14:39;3.23;;;2.87;;
16197;SDS011;8206;51.440;6.914;2024-01-15T03:17:06;2.63;;;2.53;;
16197;SDS011;8206;51.440;6.914;2024-01-15T03:19:34;4.57;;;3.77;;
16197;SDS011;8206;51.440;6.914;2024-01-15T03:22:01;10.17;;;3.13;;
16197;SDS011;8206;51.440;6.914;2024-01-15T03:24:28;3.90;;;2.50;;
16197;SDS011;8206;51.440;6.914;2024-01-15T03:26:55;3.33;;;2.23;;
16197;SDS011;8206;51.440;6.914;2024-01-15T03:29:21;3.67;;;2.20;;
16197;SDS011;8206;51.440;6.914;2024-01-15T03:31:50;7.43;;;3.37;;
16197;SDS011;8206;51.440;6.914;2024-01-15T03:34:16;2.00;;;1.90;;
16197;SDS011;8206;51.440;6.914;2024-01-15T03:36:43;13.83;;;4.40;;
16197;SDS011;8206;51.440;6.914;2024-01-15T03:39:10;2.83;;;2.33;;
16197;SDS011;8206;51.440;6.914;2024-01-15T03:41:37;1.93;;;1.93;;
16197;SDS011;8206;51.440;6.914;2024-01-15T03:44:03;3.37;;;3.03;;
16197;SDS011;8206;51.440;6.914;2024-01-15T03:46:30;2.77;;;2.57;;
16197;SDS011;8206;51.440;6.914;2024-01-15T03:48:58;4.03;;;3.63;;
16197;SDS011;8206;51.440;6.914;2024-01-15T03:51:25;1.83;;;1.73;;
16197;SDS011;8206;51.440;6.914;2024-01-15T03:53:52;3.90;;;3.60;;
16197;SDS011;8206;51.440;6.914;2024-01-15T03:56:18;2.40;;;2.30;;
16197;SDS011;8206;51.440;6.914;2024-01-15T03:58:45;3.03;;;2.43;;
16197;SDS011;8206;51.440;6.914;2024-01-15T04:01:12;15.63;;;2.30;;
16197;SDS011;8206;51.440;6.914;2024-01-15T04:03:38;2.33;;;2.23;;
16197;SDS011;8206;51.440;6.914;2024-01-15T04:06:06;3.40;;;2.03;;
16197;SDS011;8206;51.440;6.914;2024-01-15T04:08:33;2.33;;;2.23;;
16197;SDS011;8206;51.440;6.914;2024-01-15T04:11:00;2.93;;;2.80;;
16197;SDS011;8206;51.440;6.914;2024-01-15T04:13:27;5.30;;;4.80;;
16197;SDS011;8206;51.440;6.914;2024-01-15T04:15:54;2.63;;;2.47;;
16197;SDS011;8206;51.440;6.914;2024-01-15T04:18:20;5.60;;;3.23;;
16197;SDS011;8206;51.440;6.914;2024-01-15T04:20:47;2.33;;;2.13;;
16197;SDS011;8206;51.440;6.914;2024-01-15T04:23:15;3.27;;;2.90;;
16197;SDS011;8206;51.440;6.914;2024-01-15T04:25:42;4.70;;;3.07;;
16197;SDS011;8206;51.440;6.914;2024-01-15T04:28:08;3.87;;;3.17;;
16197;SDS011;8206;51.440;6.914;2024-01-15T04:30:35;3.70;;;3.50;;
16197;SDS011;8206;51.440;6.914;2024-01-15T04:33:02;2.20;;;2.10;;
16197;SDS011;8206;51.440;6.914;2024-01-15T04:35:29;1.47;;;1.47;;
16197;SDS011;8206;51.440;6.914;2024-01-15T04:37:56;3.10;;;3.00;;
16197;SDS011;8206;51.440;6.914;2024-01-15T04:40:24;11.90;;;2.83;;
16197;SDS011;8206;51.440;6.914;2024-01-15T04:42:52;4.70;;;4.30;;
16197;SDS011;8206;51.440;6.914;2024-01-15T04:45:19;6.80;;;2.93;;
16197;SDS011;8206;51.440;6.914;2024-01-15T04:47:47;5.73;;;3.03;;
16197;SDS011;8206;51.440;6.914;2024-01-15T04:50:14;2.63;;;2.07;;
16197;SDS011;8206;51.440;6.914;2024-01-15T04:52:41;3.43;;;2.67;;
16197;SDS011;8206;51.440;6.914;2024-01-15T04:55:08;3.50;;;3.20;;
16197;SDS011;8206;51.440;6.914;2024-01-15T04:57:36;3.37;;;2.37;;
16197;SDS011;8206;51.440;6.914;2024-01-15T05:00:03;4.07;;;3.67;;
16197;SDS011;8206;51.440;6.914;2024-01-15T05:02:30;5.23;;;4.37;;
16197;SDS011;8206;51.440;6.914;2024-01-15T05:04:57;2.90;;;2.70;;
16197;SDS011;8206;51.440;6.914;2024-01-15T05:07:23;4.50;;;1.93;;
16197;SDS011;8206;51.440;6.914;2024-01-15T05:09:50;2.60;;;2.40;;
16197;SDS011;8206;51.440;6.914;2024-01-15T05:12:17;3.23;;;3.03;;
16197;SDS011;8206;51.440;6.914;2024-01-15T05:14:45;2.00;;;2.00;;
16197;SDS011;8206;51.440;6.914;2024-01-15T05:17:11;3.93;;;1.80;;
16197;SDS011;8206;51.440;6.914;2024-01-15T05:19:38;2.13;;;2.00;;
16197;SDS011;8206;51.440;6.914;2024-01-15T05:22:05;8.67;;;3.33;;
16197;SDS011;8206;51.440;6.914;2024-01-15T05:24:31;4.80;;;3.37;;
16197;SDS011;8206;51.440;6.914;2024-01-15T05:26:58;2.70;;;2.50;;
16197;SDS011;8206;51.440;6.914;2024-01-15T05:29:24;2.50;;;1.97;;
16197;SDS011;8206;51.440;6.914;2024-01-15T05:31:53;2.93;;;2.50;;
16197;SDS011;8206;51.440;6.914;2024-01-15T05:34:19;1.90;;;1.80;;
16197;SDS011;8206;51.440;6.914;2024-01-15T05:36:46;2.13;;;2.03;;
16197;SDS011;8206;51.440;6.914;2024-01-15T05:39:13;3.77;;;3.47;;
16197;SDS011;8206;51.440;6.914;2024-01-15T05:41:40;6.30;;;4.30;;
16197;SDS011;8206;51.440;6.914;2024-01-15T05:44:07;1.10;;;1.10;;
16197;SDS011;8206;51.440;6.914;2024-01-15T05:46:33;2.00;;;1.90;;
16197;SDS011;8206;51.440;6.914;2024-01-15T05:49:01;4.20;;;3.90;;
16197;SDS011;8206;51.440;6.914;2024-01-15T05:51:28;2.23;;;2.00;;
16197;SDS011;8206;51.440;6.914;2024-01-15T05:53:54;1.27;;;1.17;;
16197;SDS011;8206;51.440;6.914;2024-01-15T05:56:21;4.10;;;3.77;;
16197;SDS011;8206;51.440;6.914;2024-01-15T05:58:49;1.80;;;1.70;;
16197;SDS011;8206;51.440;6.914;2024-01-15T06:01:15;2.40;;;2.23;;
16197;SDS011;8206;51.440;6.914;2024-01-15T06:03:42;6.13;;;3.13;;
16197;SDS011;8206;51.440;6.914;2024-01-15T06:06:10;3.47;;;3.27;;
16197;SDS011;8206;51.440;6.914;2024-01-15T06:08:37;4.87;;;2.60;;
16197;SDS011;8206;51.440;6.914;2024-01-15T06:11:04;3.03;;;2.27;;
16197;SDS011;8206;51.440;6.914;2024-01-15T06:13:31;2.43;;;2.23;;
16197;SDS011;8206;51.440;6.914;2024-01-15T06:15:57;6.13;;;2.60;;
16197;SDS011;8206;51.440;6.914;2024-01-15T06:18:24;1.03;;;1.03;;
16197;SDS011;8206;51.440;6.914;2024-01-15T06:20:51;4.63;;;2.90;;
16197;SDS011;8206;51.440;6.914;2024-01-15T06:23:19;1.67;;;1.67;;
16197;SDS011;8206;51.440;6.914;2024-01-15T06:25:45;3.10;;;2.90;;
16197;SDS011;8206;51.440;6.914;2024-01-15T06:28:12;1.27;;;1.27;;
16197;SDS011;8206;51.440;6.914;2024-01-15T06:30:39;2.07;;;1.93;;
16197;SDS011;8206;51.440;6.914;2024-01-15T06:33:05;2.80;;;2.60;;
16197;SDS011;8206;51.440;6.914;2024-01-15T06:35:32;2.93;;;2.73;;
16197;SDS011;8206;51.440;6.914;2024-01-15T06:38:00;2.80;;;2.70;;
16197;SDS011;8206;51.440;6.914;2024-01-15T06:40:28;1.73;;;1.63;;
16197;SDS011;8206;51.440;6.914;2024-01-15T06:42:54;1.00;;;1.00;;
16197;SDS011;8206;51.440;6.914;2024-01-15T06:45:21;2.67;;;2.57;;
16197;SDS011;8206;51.440;6.914;2024-01-15T06:47:47;1.50;;;1.40;;
16197;SDS011;8206;51.440;6.914;2024-01-15T06:50:14;1.50;;;1.50;;
16197;SDS011;8206;51.440;6.914;2024-01-15T06:52:41;2.07;;;1.73;;
16197;SDS011;8206;51.440;6.914;2024-01-15T06:55:08;1.77;;;1.73;;
16197;SDS011;8206;51.440;6.914;2024-01-15T06:57:36;2.07;;;1.93;;
16197;SDS011;8206;51.440;6.914;2024-01-15T07:00:02;1.47;;;1.40;;
16197;SDS011;8206;51.440;6.914;2024-01-15T07:02:32;1.67;;;1.57;;
16197;SDS011;8206;51.440;6.914;2024-01-15T07:04:59;1.73;;;1.63;;
16197;SDS011;8206;51.440;6.914;2024-01-15T07:07:26;1.40;;;1.40;;
16197;SDS011;8206;51.440;6.914;2024-01-15T07:09:54;3.40;;;2.30;;
16197;SDS011;8206;51.440;6.914;2024-01-15T07:12:21;0.53;;;0.53;;
16197;SDS011;8206;51.440;6.914;2024-01-15T07:14:49;1.00;;;1.00;;
16197;SDS011;8206;51.440;6.914;2024-01-15T07:17:16;0.63;;;0.63;;
16197;SDS011;8206;51.440;6.914;2024-01-15T07:19:42;1.43;;;1.43;;
16197;SDS011;8206;51.440;6.914;2024-01-15T07:22:09;0.93;;;0.93;;
16197;SDS011;8206;51.440;6.914;2024-01-15T07:24:36;0.50;;;0.50;;
16197;SDS011;8206;51.440;6.914;2024-01-15T07:27:03;1.80;;;1.27;;
16197;SDS011;8206;51.440;6.914;2024-01-15T07:29:30;2.10;;;2.00;;
16197;SDS011;8206;51.440;6.914;2024-01-15T07:31:59;0.87;;;0.87;;
16197;SDS011;8206;51.440;6.914;2024-01-15T07:34:26;1.40;;;1.13;;
16197;SDS011;8206;51.440;6.914;2024-01-15T07:36:53;1.37;;;1.37;;
16197;SDS011;8206;51.440;6.914;2024-01-15T07:39:19;0.90;;;0.90;;
16197;SDS011;8206;51.440;6.914;2024-01-15T07:41:47;2.43;;;2.27;;
16197;SDS011;8206;51.440;6.914;2024-01-15T07:44:14;3.60;;;2.33;;
16197;SDS011;8206;51.440;6.914;2024-01-15T07:46:43;0.90;;;0.90;;
16197;SDS011;8206;51.440;6.914;2024-01-15T07:49:11;2.13;;;2.03;;
16197;SDS011;8206;51.440;6.914;2024-01-15T07:51:38;6.23;;;2.53;;
16197;SDS011;8206;51.440;6.914;2024-01-15T07:54:06;3.37;;;2.63;;
16197;SDS011;8206;51.440;6.914;2024-01-15T07:56:32;2.50;;;2.00;;
16197;SDS011;8206;51.440;6.914;2024-01-15T07:58:59;2.13;;;2.03;;
16197;SDS011;8206;51.440;6.914;2024-01-15T08:01:26;6.40;;;2.07;;
16197;SDS011;8206;51.440;6.914;2024-01-15T08:03:53;3.87;;;3.43;;
16197;SDS011;8206;51.440;6.914;2024-01-15T08:06:21;1.10;;;1.10;;
16197;SDS011;8206;51.440;6.914;2024-01-15T08:08:48;1.93;;;1.83;;
16197;SDS011;8206;51.440;6.914;2024-01-15T08:11:15;1.93;;;1.83;;
16197;SDS011;8206;51.440;6.914;2024-01-15T08:13:41;2.10;;;2.00;;
16197;SDS011;8206;51.440;6.914;2024-01-15T08:16:08;2.20;;;2.10;;
16197;SDS011;8206;51.440;6.914;2024-01-15T08:18:35;3.00;;;2.80;;
16197;SDS011;8206;51.440;6.914;2024-01-15T08:21:02;1.50;;;1.50;;
16197;SDS011;8206;51.440;6.914;2024-01-15T08:23:30;2.53;;;2.43;;
16197;SDS011;8206;51.440;6.914;2024-01-15T08:25:57;3.33;;;2.60;;
16197;SDS011;8206;51.440;6.914;2024-01-15T08:28:24;6.77;;;3.30;;
16197;SDS011;8206;51.440;6.914;2024-01-15T08:30:50;1.53;;;1.43;;
16197;SDS011;8206;51.440;6.914;2024-01-15T08:33:17;2.33;;;2.13;;
16197;SDS011;8206;51.440;6.914;2024-01-15T08:35:43;2.07;;;1.97;;
16197;SDS011;8206;51.440;6.914;2024-01-15T08:38:10;2.73;;;2.53;;
16197;SDS011;8206;51.440;6.914;2024-01-15T08:40:38;1.97;;;1.90;;
16197;SDS011;8206;51.440;6.914;2024-01-15T08:43:05;2.90;;;2.80;;
16197;SDS011;8206;51.440;6.914;2024-01-15T08:45:32;3.90;;;3.60;;
16197;SDS011;8206;51.440;6.914;2024-01-15T08:47:59;1.53;;;1.53;;
16197;SDS011;8206;51.440;6.914;2024-01-15T08:50:26;2.67;;;2.53;;
16197;SDS011;8206;51.440;6.914;2024-01-15T08:52:52;1.93;;;1.83;;
16197;SDS011;8206;51.440;6.914;2024-01-15T08:55:19;1.37;;;1.33;;
16197;SDS011;8206;51.440;6.914;2024-01-15T08:57:48;1.13;;;1.13;;
16197;SDS011;8206;51.440;6.914;2024-01-15T09:00:15;1.90;;;1.80;;
16197;SDS011;8206;51.440;6.914;2024-01-15T09:02:43;2.30;;;2.10;;
16197;SDS011;8206;51.440;6.914;2024-01-15T09:05:10;2.60;;;2.40;;
16197;SDS011;8206;51.440;6.914;2024-01-15T09:07:37;1.90;;;1.80;;
16197;SDS011;8206;51.440;6.914;2024-01-15T09:10:04;1.93;;;1.90;;
16197;SDS011;8206;51.440;6.914;2024-01-15T09:12:31;1.67;;;1.57;;
16197;SDS011;8206;51.440;6.914;2024-01-15T09:14:59;3.50;;;3.13;;
16197;SDS011;8206;51.440;6.914;2024-01-15T09:17:29;1.63;;;1.63;;
16197;SDS011;8206;51.440;6.914;2024-01-15T09:19:55;2.47;;;2.37;;
16197;SDS011;8206;51.440;6.914;2024-01-15T09:22:22;1.37;;;1.37;;
16197;SDS011;8206;51.440;6.914;2024-01-15T09:24:49;1.73;;;1.63;;
16197;SDS011;8206;51.440;6.914;2024-01-15T09:27:15;1.30;;;1.27;;
16197;SDS011;8206;51.440;6.914;2024-01-15T09:29:42;3.50;;;2.77;;
16197;SDS011;8206;51.440;6.914;2024-01-15T09:32:12;1.13;;;1.10;;
16197;SDS011;8206;51.440;6.914;2024-01-15T09:34:38;1.33;;;1.33;;
16197;SDS011;8206;51.440;6.914;2024-01-15T09:37:06;2.90;;;2.60;;
16197;SDS011;8206;51.440;6.914;2024-01-15T09:39:33;1.93;;;1.83;;
16197;SDS011;8206;51.440;6.914;2024-01-15T09:41:59;2.33;;;2.23;;
16197;SDS011;8206;51.440;6.914;2024-01-15T09:44:26;2.37;;;2.23;;
16197;SDS011;8206;51.440;6.914;2024-01-15T09:46:54;1.00;;;1.00;;
16197;SDS011;8206;51.440;6.914;2024-01-15T09:49:23;2.17;;;1.53;;
16197;SDS011;8206;51.440;6.914;2024-01-15T09:51:50;2.43;;;2.30;;
16197;SDS011;8206;51.440;6.914;2024-01-15T09:54:17;1.53;;;1.53;;
16197;SDS011;8206;51.440;6.914;2024-01-15T09:56:44;1.57;;;1.57;;
16197;SDS011;8206;51.440;6.914;2024-01-15T09:59:12;3.07;;;1.50;;
16197;SDS011;8206;51.440;6.914;2024-01-15T10:01:41;1.63;;;1.53;;
16197;SDS011;8206;51.440;6.914;2024-01-15T10:04:09;1.70;;;1.00;;
16197;SDS011;8206;51.440;6.914;2024-01-15T10:06:37;0.80;;;0.80;;
16197;SDS011;8206;51.440;6.914;2024-01-15T10:09:05;0.60;;;0.60;;
16197;SDS011;8206;51.440;6.914;2024-01-15T10:11:32;0.97;;;0.97;;
16197;SDS011;8206;51.440;6.914;2024-01-15T10:13:59;1.47;;;1.47;;
16197;SDS011;8206;51.440;6.914;2024-01-15T10:16:26;1.20;;;1.20;;
16197;SDS011;8206;51.440;6.914;2024-01-15T10:18:53;3.67;;;1.73;;
16197;SDS011;8206;51.440;6.914;2024-01-15T10:21:20;1.87;;;1.87;;
16197;SDS011;8206;51.440;6.914;2024-01-15T10:23:48;1.27;;;1.27;;
16197;SDS011;8206;51.440;6.914;2024-01-15T10:26:15;1.00;;;1.00;;
16197;SDS011;8206;51.440;6.914;2024-01-15T10:28:42;1.33;;;1.33;;
16197;SDS011;8206;51.440;6.914;2024-01-15T10:31:09;0.80;;;0.80;;
16197;SDS011;8206;51.440;6.914;2024-01-15T10:33:36;0.90;;;0.90;;
16197;SDS011;8206;51.440;6.914;2024-01-15T10:36:03;1.77;;;1.67;;
16197;SDS011;8206;51.440;6.914;2024-01-15T10:38:36;2.53;;;2.30;;
16197;SDS011;8206;51.440;6.914;2024-01-15T10:41:04;1.13;;;0.83;;
16197;SDS011;8206;51.440;6.914;2024-01-15T10:43:31;1.70;;;1.23;;
16197;SDS011;8206;51.440;6.914;2024-01-15T10:45:59;1.33;;;1.33;;
16197;SDS011;8206;51.440;6.914;2024-01-15T10:48:26;1.97;;;1.87;;
16197;SDS011;8206;51.440;6.914;2024-01-15T10:50:56;1.20;;;1.10;;
16197;SDS011;8206;51.440;6.914;2024-01-15T10:53:23;0.80;;;0.80;;
16197;SDS011;8206;51.440;6.914;2024-01-15T10:55:51;1.07;;;1.07;;
16197;SDS011;8206;51.440;6.914;2024-01-15T10:58:19;1.10;;;1.10;;
16197;SDS011;8206;51.440;6.914;2024-01-15T11:00:47;1.03;;;0.97;;
16197;SDS011;8206;51.440;6.914;2024-01-15T11:03:14;1.17;;;1.17;;
16197;SDS011;8206;51.440;6.914;2024-01-15T11:05:41;2.00;;;1.90;;
16197;SDS011;8206;51.440;6.914;2024-01-15T11:08:09;1.03;;;0.80;;
16197;SDS011;8206;51.440;6.914;2024-01-15T11:10:41;2.37;;;1.50;;
16197;SDS011;8206;51.440;6.914;2024-01-15T11:13:13;0.43;;;0.43;;
16197;SDS011;8206;51.440;6.914;2024-01-15T11:15:59;0.93;;;0.70;;
16197;SDS011;8206;51.440;6.914;2024-01-15T11:18:27;0.67;;;0.67;;
16197;SDS011;8206;51.440;6.914;2024-01-15T11:21:19;1.17;;;1.17;;
16197;SDS011;8206;51.440;6.914;2024-01-15T11:23:51;1.57;;;1.47;;
16197;SDS011;8206;51.440;6.914;2024-01-15T11:26:31;1.20;;;1.20;;
16197;SDS011;8206;51.440;6.914;2024-01-15T11:29:02;1.07;;;1.07;;
16197;SDS011;8206;51.440;6.914;2024-01-15T11:37:26;1.30;;;1.30;;
16197;SDS011;8206;51.440;6.914;2024-01-15T11:39:54;0.77;;;0.77;;
16197;SDS011;8206;51.440;6.914;2024-01-15T11:42:22;1.53;;;1.17;;
16197;SDS011;8206;51.440;6.914;2024-01-15T11:44:49;0.87;;;0.87;;
16197;SDS011;8206;51.440;6.914;2024-01-15T11:47:21;1.93;;;1.77;;
16197;SDS011;8206;51.440;6.914;2024-01-15T11:50:21;1.50;;;1.50;;
16197;SDS011;8206;51.440;6.914;2024-01-15T11:52:49;1.27;;;1.27;;
16197;SDS011;8206;51.440;6.914;2024-01-15T11:55:25;0.70;;;0.70;;
16197;SDS011;8206;51.440;6.914;2024-01-15T11:57:54;0.50;;;0.50;;
16197;SDS011;8206;51.440;6.914;2024-01-15T12:00:23;1.13;;;1.13;;
16197;SDS011;8206;51.440;6.914;2024-01-15T12:02:51;1.70;;;1.17;;
16197;SDS011;8206;51.440;6.914;2024-01-15T12:05:18;1.20;;;1.20;;
16197;SDS011;8206;51.440;6.914;2024-01-15T12:07:46;1.90;;;1.47;;
16197;SDS011;8206;51.440;6.914;2024-01-15T12:10:15;1.40;;;1.10;;
16197;SDS011;8206;51.440;6.914;2024-01-15T12:12:47;1.23;;;1.23;;
16197;SDS011;8206;51.440;6.914;2024-01-15T12:15:23;1.10;;;1.10;;
16197;SDS011;8206;51.440;6.914;2024-01-15T12:17:52;5.87;;;1.87;;
16197;SDS011;8206;51.440;6.914;2024-01-15T12:20:20;1.63;;;1.60;;
16197;SDS011;8206;51.440;6.914;2024-01-15T12:22:47;0.50;;;0.50;;
16197;SDS011;8206;51.440;6.914;2024-01-15T12:25:14;1.40;;;1.40;;
16197;SDS011;8206;51.440;6.914;2024-01-15T12:27:40;0.40;;;0.40;;
16197;SDS011;8206;51.440;6.914;2024-01-15T12:30:10;1.13;;;1.13;;
16197;SDS011;8206;51.440;6.914;2024-01-15T12:32:37;1.20;;;1.20;;
16197;SDS011;8206;51.440;6.914;2024-01-15T12:35:05;3.30;;;1.10;;
16197;SDS011;8206;51.440;6.914;2024-01-15T12:37:34;1.43;;;1.43;;
16197;SDS011;8206;51.440;6.914;2024-01-15T12:40:01;1.00;;;1.00;;
16197;SDS011;8206;51.440;6.914;2024-01-15T12:42:29;1.00;;;1.00;;
16197;SDS011;8206;51.440;6.914;2024-01-15T12:44:56;0.60;;;0.60;;
16197;SDS011;8206;51.440;6.914;2024-01-15T12:47:23;0.50;;;0.50;;
16197;SDS011;8206;51.440;6.914;2024-01-15T12:49:51;0.73;;;0.73;;
16197;SDS011;8206;51.440;6.914;2024-01-15T12:52:21;1.17;;;1.17;;
16197;SDS011;8206;51.440;6.914;2024-01-15T12:54:48;0.50;;;0.50;;
16197;SDS011;8206;51.440;6.914;2024-01-15T12:57:14;1.60;;;1.60;;
16197;SDS011;8206;51.440;6.914;2024-01-15T12:59:41;1.83;;;1.60;;
16197;SDS011;8206;51.440;6.914;2024-01-15T13:02:08;1.87;;;1.77;;
16197;SDS011;8206;51.440;6.914;2024-01-15T13:04:35;0.80;;;0.80;;
16197;SDS011;8206;51.440;6.914;2024-01-15T13:07:02;20.93;;;1.80;;
16197;SDS011;8206;51.440;6.914;2024-01-15T13:09:30;1.10;;;1.10;;
16197;SDS011;8206;51.440;6.914;2024-01-15T13:11:56;6.80;;;1.47;;
16197;SDS011;8206;51.440;6.914;2024-01-15T13:14:23;0.90;;;0.90;;
16197;SDS011;8206;51.440;6.914;2024-01-15T13:16:50;0.73;;;0.73;;
16197;SDS011;8206;51.440;6.914;2024-01-15T13:19:17;1.23;;;1.23;;
16197;SDS011;8206;51.440;6.914;2024-01-15T13:21:44;0.53;;;0.53;;
16197;SDS011;8206;51.440;6.914;2024-01-15T13:24:11;1.70;;;1.60;;
16197;SDS011;8206;51.440;6.914;2024-01-15T13:26:39;1.33;;;1.33;;
16197;SDS011;8206;51.440;6.914;2024-01-15T13:29:06;0.93;;;0.93;;
16197;SDS011;8206;51.440;6.914;2024-01-15T13:31:33;0.47;;;0.47;;
16197;SDS011;8206;51.440;6.914;2024-01-15T13:33:59;1.17;;;1.10;;
16197;SDS011;8206;51.440;6.914;2024-01-15T13:36:26;0.43;;;0.43;;
16197;SDS011;8206;51.440;6.914;2024-01-15T13:38:53;0.80;;;0.80;;
16197;SDS011;8206;51.440;6.914;2024-01-15T13:41:20;1.27;;;1.27;;
16197;SDS011;8206;51.440;6.914;2024-01-15T13:43:53;1.23;;;1.23;;
16197;SDS011;8206;51.440;6.914;2024-01-15T13:46:23;0.97;;;0.97;;
16197;SDS011;8206;51.440;6.914;2024-01-15T13:48:51;2.10;;;1.67;;
16197;SDS011;8206;51.440;6.914;2024-01-15T13:51:18;2.23;;;2.07;;
16197;SDS011;8206;51.440;6.914;2024-01-15T13:53:46;2.00;;;0.73;;
16197;SDS011;8206;51.440;6.914;2024-01-15T13:56:13;0.83;;;0.83;;
16197;SDS011;8206;51.440;6.914;2024-01-15T13:58:39;1.00;;;0.90;;
16197;SDS011;8206;51.440;6.914;2024-01-15T14:01:07;0.80;;;0.80;;
16197;SDS011;8206;51.440;6.914;2024-01-15T14:03:34;0.97;;;0.97;;
16197;SDS011;8206;51.440;6.914;2024-01-15T14:06:01;0.70;;;0.70;;
16197;SDS011;8206;51.440;6.914;2024-01-15T14:08:28;1.60;;;1.60;;
16197;SDS011;8206;51.440;6.914;2024-01-15T14:10:55;0.93;;;0.83;;
16197;SDS011;8206;51.440;6.914;2024-01-15T14:13:22;0.77;;;0.77;;
16197;SDS011;8206;51.440;6.914;2024-01-15T14:15:49;1.27;;;1.17;;
16197;SDS011;8206;51.440;6.914;2024-01-15T14:18:17;0.70;;;0.70;;
16197;SDS011;8206;51.440;6.914;2024-01-15T14:20:44;3.30;;;1.13;;
16197;SDS011;8206;51.440;6.914;2024-01-15T14:23:10;1.53;;;0.60;;
16197;SDS011;8206;51.440;6.914;2024-01-15T14:25:38;0.87;;;0.87;;
16197;SDS011;8206;51.440;6.914;2024-01-15T14:28:05;1.17;;;1.17;;
16197;SDS011;8206;51.440;6.914;2024-01-15T14:30:32;1.07;;;0.73;;
16197;SDS011;8206;51.440;6.914;2024-01-15T14:32:58;0.60;;;0.60;;
16197;SDS011;8206;51.440;6.914;2024-01-15T14:35:26;0.60;;;0.60;;
16197;SDS011;8206;51.440;6.914;2024-01-15T14:37:53;2.23;;;1.90;;
16197;SDS011;8206;51.440;6.914;2024-01-15T14:40:20;1.00;;;1.00;;
16197;SDS011;8206;51.440;6.914;2024-01-15T14:42:46;1.60;;;1.50;;
16197;SDS011;8206;51.440;6.914;2024-01-15T14:45:13;0.60;;;0.60;;
16197;SDS011;8206;51.440;6.914;2024-01-15T14:47:40;1.07;;;1.07;;
16197;SDS011;8206;51.440;6.914;2024-01-15T14:50:08;0.73;;;0.73;;
16197;SDS011;8206;51.440;6.914;2024-01-15T14:52:37;1.67;;;1.57;;
16197;SDS011;8206;51.440;6.914;2024-01-15T14:55:04;0.60;;;0.60;;
16197;SDS011;8206;51.440;6.914;2024-01-15T14:57:33;0.70;;;0.70;;
16197;SDS011;8206;51.440;6.914;2024-01-15T15:00:00;1.10;;;1.10;;
16197;SDS011;8206;51.440;6.914;2024-01-15T15:02:27;0.97;;;0.97;;
16197;SDS011;8206;51.440;6.914;2024-01-15T15:04:54;1.13;;;1.13;;
16197;SDS011;8206;51.440;6.914;2024-01-15T15:07:21;0.73;;;0.73;;